Time;durP1;ratioP1;P1;durP2;ratioP2;P2;SDS_P1;SDS_P2;PMS_P1;PMS_P2;Temp;Humidity;BMP_temperature;BMP_pressure;BME280_temperature;BME280_humidity;BME280_pressure;Samples;Min_cycle;Max_cycle;Signal;HPM_P1;HPM_P2
2023/01/19 00:00:55;;;;;;;15.45;11.93;;;3.70;99.90;;;;;;5049534;28;20200;-74
2023/01/19 00:03:23;;;;;;;15.98;13.85;;;3.70;99.90;;;;;;5051604;28;20234;-76
2023/01/19 00:05:51;;;;;;;17.13;11.10;;;3.70;99.90;;;;;;5055025;28;20597;-76
2023/01/19 00:08:18;;;;;;;19.95;12.52;;;3.60;99.90;;;;;;5052026;28;20329;-74
2023/01/19 00:10:46;;;;;;;14.90;11.55;;;3.70;99.90;;;;;;5050319;28;20192;-74
2023/01/19 00:13:14;;;;;;;16.05;12.60;;;3.80;99.90;;;;;;5056771;28;20661;-76
2023/01/19 00:15:41;;;;;;;20.90;12.52;;;3.80;99.90;;;;;;5049384;28;20274;-74
2023/01/19 00:18:08;;;;;;;20.40;12.55;;;3.80;99.90;;;;;;5054444;28;20222;-74
2023/01/19 00:20:39;;;;;;;21.33;13.40;;;3.80;99.90;;;;;;5054908;28;20286;-75
2023/01/19 00:23:06;;;;;;;20.08;12.60;;;4.00;99.90;;;;;;5047784;28;20231;-74
2023/01/19 00:25:33;;;;;;;15.88;11.75;;;3.90;99.90;;;;;;5055743;28;20277;-75
2023/01/19 00:28:00;;;;;;;16.98;12.20;;;4.00;99.90;;;;;;5047122;28;20246;-75
2023/01/19 00:30:27;;;;;;;15.90;13.60;;;3.90;99.90;;;;;;5062783;28;20257;-76
2023/01/19 00:32:54;;;;;;;14.90;12.85;;;3.90;99.90;;;;;;5050074;28;20200;-75
2023/01/19 00:35:22;;;;;;;15.80;11.27;;;3.90;99.90;;;;;;5059473;28;20310;-75
2023/01/19 00:37:51;;;;;;;17.90;12.70;;;3.80;99.90;;;;;;5061064;28;20271;-74
2023/01/19 00:40:18;;;;;;;17.05;13.35;;;3.90;99.90;;;;;;5057290;28;20227;-74
2023/01/19 00:42:47;;;;;;;16.33;12.88;;;3.80;99.90;;;;;;5056941;28;20237;-75
2023/01/19 00:45:18;;;;;;;17.05;11.98;;;3.90;99.90;;;;;;5053606;28;20697;-74
2023/01/19 00:47:45;;;;;;;18.75;12.98;;;3.80;99.90;;;;;;5054401;28;20646;-76
2023/01/19 00:50:13;;;;;;;14.75;11.27;;;3.80;99.90;;;;;;5056164;28;20238;-74
2023/01/19 00:52:40;;;;;;;24.17;13.05;;;3.80;99.90;;;;;;5052835;28;20278;-77
2023/01/19 00:55:10;;;;;;;14.35;12.40;;;3.80;99.90;;;;;;5052479;28;20681;-76
2023/01/19 00:57:38;;;;;;;17.58;13.07;;;3.70;99.90;;;;;;5052536;28;20593;-75
2023/01/19 01:00:07;;;;;;;17.45;12.07;;;3.70;99.90;;;;;;5052415;28;20203;-74
2023/01/19 01:02:36;;;;;;;16.10;13.00;;;3.80;99.90;;;;;;5053214;28;20261;-76
2023/01/19 01:05:04;;;;;;;21.65;14.15;;;3.70;99.90;;;;;;5052917;28;20231;-75
2023/01/19 01:07:33;;;;;;;20.00;12.80;;;3.80;99.90;;;;;;5053691;28;20574;-75
2023/01/19 01:10:00;;;;;;;17.33;14.80;;;3.80;99.90;;;;;;5052696;28;20274;-75
2023/01/19 01:12:29;;;;;;;21.27;12.98;;;3.70;99.90;;;;;;5053452;28;20232;-74
2023/01/19 01:14:56;;;;;;;17.20;12.95;;;3.80;99.90;;;;;;5053437;28;20761;-75
2023/01/19 01:17:24;;;;;;;16.77;14.90;;;3.80;99.90;;;;;;5054326;28;20726;-75
2023/01/19 01:19:51;;;;;;;21.08;15.05;;;3.80;99.90;;;;;;5053554;28;20199;-74
2023/01/19 01:22:19;;;;;;;17.50;14.65;;;3.70;99.90;;;;;;5053442;28;20199;-73
2023/01/19 01:24:46;;;;;;;19.60;15.05;;;3.60;99.90;;;;;;5052667;28;20299;-77
2023/01/19 01:27:13;;;;;;;19.63;14.98;;;3.60;99.90;;;;;;5053228;28;20290;-74
2023/01/19 01:29:45;;;;;;;17.65;14.50;;;3.70;99.90;;;;;;5048564;28;20201;-74
2023/01/19 01:32:12;;;;;;;19.08;14.57;;;3.70;99.90;;;;;;5048261;28;20705;-74
2023/01/19 01:34:39;;;;;;;20.05;15.68;;;3.70;99.90;;;;;;5050705;28;20302;-75
2023/01/19 01:37:07;;;;;;;18.75;14.77;;;3.60;99.90;;;;;;5046340;28;20211;-75
2023/01/19 01:39:36;;;;;;;25.30;16.33;;;3.60;99.90;;;;;;5045010;28;20598;-75
2023/01/19 01:42:03;;;;;;;19.98;14.77;;;3.50;99.90;;;;;;5061762;28;20241;-75
2023/01/19 01:44:50;;;;;;;22.35;16.50;;;3.60;99.90;;;;;;5052948;28;20205;-76
2023/01/19 01:47:24;;;;;;;21.00;15.52;;;3.60;99.90;;;;;;5053330;28;20559;-76
2023/01/19 01:49:56;;;;;;;24.17;16.75;;;3.50;99.90;;;;;;5051784;28;20596;-75
2023/01/19 01:52:25;;;;;;;21.27;15.77;;;3.50;99.90;;;;;;5052373;28;20203;-74
2023/01/19 01:54:53;;;;;;;19.10;16.23;;;3.50;99.90;;;;;;5051627;28;20259;-75
2023/01/19 01:57:21;;;;;;;22.20;14.88;;;3.60;99.90;;;;;;5052472;28;20235;-76
2023/01/19 01:59:51;;;;;;;21.67;16.65;;;3.60;99.90;;;;;;5050085;28;20225;-75
2023/01/19 02:05:09;;;;;;;17.15;14.65;;;3.60;99.90;;;;;;5046325;28;20704;-75
2023/01/19 02:13:20;;;;;;;24.90;17.88;;;3.50;99.90;;;;;;5050664;28;20241;-76
2023/01/19 02:15:49;;;;;;;22.63;17.33;;;3.50;99.90;;;;;;5045725;28;20589;-77
2023/01/19 02:18:17;;;;;;;19.63;17.35;;;3.60;99.90;;;;;;5051378;28;20247;-75
2023/01/19 02:20:53;;;;;;;20.65;17.30;;;3.60;99.90;;;;;;5050895;28;20213;-75
2023/01/19 02:23:33;;;;;;;25.00;17.02;;;3.60;99.90;;;;;;5052073;28;20301;-75
2023/01/19 02:26:01;;;;;;;24.00;18.27;;;3.60;99.90;;;;;;5046917;28;20246;-76
2023/01/19 02:28:29;;;;;;;21.83;18.17;;;3.60;99.90;;;;;;5048932;28;20216;-74
2023/01/19 02:30:56;;;;;;;31.55;19.42;;;3.60;99.90;;;;;;5051214;28;20202;-74
2023/01/19 02:33:23;;;;;;;21.17;17.30;;;3.50;99.90;;;;;;5046067;28;20294;-75
2023/01/19 02:35:52;;;;;;;20.40;17.65;;;3.50;99.90;;;;;;5042580;28;20281;-75
2023/01/19 02:38:21;;;;;;;20.77;17.63;;;3.50;99.90;;;;;;5049669;28;20650;-74
2023/01/19 02:40:50;;;;;;;20.05;17.55;;;3.60;99.90;;;;;;5047390;28;20200;-73
2023/01/19 02:43:19;;;;;;;19.30;17.20;;;3.50;99.90;;;;;;5044202;28;20215;-74
2023/01/19 02:45:47;;;;;;;21.33;17.60;;;3.60;99.90;;;;;;5051028;28;20230;-75
2023/01/19 02:48:16;;;;;;;22.00;17.02;;;3.60;99.90;;;;;;5046652;28;20208;-75
2023/01/19 02:50:48;;;;;;;17.75;15.77;;;3.60;99.90;;;;;;5043695;28;20238;-76
2023/01/19 02:53:53;;;;;;;24.38;17.92;;;3.60;99.90;;;;;;5048514;28;20290;-74
2023/01/19 02:56:44;;;;;;;21.13;16.33;;;3.60;99.90;;;;;;5049992;28;20941;-75
2023/01/19 02:59:17;;;;;;;19.88;16.60;;;3.60;99.90;;;;;;5044151;28;20219;-76
2023/01/19 03:02:08;;;;;;;24.77;17.60;;;3.60;99.90;;;;;;5047066;28;20211;-75
2023/01/19 03:04:45;;;;;;;19.70;15.93;;;3.70;99.90;;;;;;5047394;28;20250;-75
2023/01/19 03:07:18;;;;;;;27.58;21.70;;;3.60;99.90;;;;;;5050424;28;20286;-75
2023/01/19 03:09:53;;;;;;;24.90;16.08;;;3.50;99.90;;;;;;5052674;28;20286;-74
2023/01/19 03:12:26;;;;;;;24.20;17.90;;;3.50;99.90;;;;;;5053480;28;20238;-75
2023/01/19 03:14:59;;;;;;;21.88;19.52;;;3.50;99.90;;;;;;5052569;28;20230;-74
2023/01/19 03:17:28;;;;;;;24.35;17.42;;;3.50;99.90;;;;;;5054164;28;20302;-74
2023/01/19 03:19:55;;;;;;;22.60;18.00;;;3.50;99.90;;;;;;5054837;28;20619;-74
2023/01/19 03:22:26;;;;;;;21.25;17.60;;;3.60;99.90;;;;;;5052311;28;20208;-75
2023/01/19 03:24:58;;;;;;;22.58;18.63;;;3.60;99.90;;;;;;5049163;28;20223;-75
2023/01/19 03:27:30;;;;;;;23.73;18.40;;;3.60;99.90;;;;;;5050742;28;20678;-75
2023/01/19 03:30:00;;;;;;;24.13;20.48;;;3.70;99.90;;;;;;5050285;28;20222;-74
2023/01/19 03:32:31;;;;;;;21.83;18.60;;;3.70;99.90;;;;;;5044844;28;20199;-75
2023/01/19 03:35:01;;;;;;;20.25;17.27;;;3.70;99.90;;;;;;5046217;28;20220;-75
2023/01/19 03:37:30;;;;;;;23.50;17.00;;;3.70;99.90;;;;;;5060368;28;20239;-76
2023/01/19 03:39:57;;;;;;;24.45;17.70;;;3.70;99.90;;;;;;5054623;28;20700;-75
2023/01/19 03:42:27;;;;;;;21.25;16.65;;;3.70;99.90;;;;;;5054907;28;20295;-75
2023/01/19 03:44:56;;;;;;;23.10;17.80;;;3.60;99.90;;;;;;5054326;28;20230;-74
2023/01/19 03:47:25;;;;;;;33.47;18.48;;;3.60;99.90;;;;;;5051706;28;20231;-75
2023/01/19 03:49:53;;;;;;;29.73;18.63;;;3.50;99.90;;;;;;5043125;28;20290;-75
2023/01/19 03:52:28;;;;;;;23.52;19.30;;;3.50;99.90;;;;;;5052050;28;20608;-75
2023/01/19 03:54:55;;;;;;;24.92;20.13;;;3.60;99.90;;;;;;5044641;28;20302;-74
2023/01/19 03:57:22;;;;;;;25.52;18.15;;;3.50;99.90;;;;;;5053259;28;20211;-74
2023/01/19 03:59:50;;;;;;;26.70;18.38;;;3.50;99.90;;;;;;5047611;28;20220;-76
2023/01/19 04:02:17;;;;;;;22.52;18.70;;;3.50;99.90;;;;;;5043305;28;20660;-75
2023/01/19 04:04:44;;;;;;;24.27;18.45;;;3.50;99.90;;;;;;5049089;28;20247;-74
2023/01/19 04:07:11;;;;;;;24.38;20.35;;;3.50;99.90;;;;;;5049103;28;20219;-75
2023/01/19 04:09:38;;;;;;;23.90;17.85;;;3.50;99.90;;;;;;5053031;28;20195;-75
2023/01/19 04:12:05;;;;;;;20.42;18.23;;;3.60;99.90;;;;;;5051140;28;20607;-74
2023/01/19 04:14:32;;;;;;;20.00;16.60;;;3.50;99.90;;;;;;5053085;28;20214;-75
2023/01/19 04:17:00;;;;;;;24.50;19.48;;;3.50;99.90;;;;;;5048858;28;20284;-75
2023/01/19 04:19:28;;;;;;;22.83;18.60;;;3.50;99.90;;;;;;5050658;28;20310;-74
2023/01/19 04:21:55;;;;;;;23.38;18.33;;;3.50;99.90;;;;;;5052422;28;20291;-74
2023/01/19 04:24:24;;;;;;;22.98;18.60;;;3.40;99.90;;;;;;5039607;28;20226;-74
2023/01/19 04:26:52;;;;;;;23.75;19.00;;;3.40;99.90;;;;;;5045788;28;20647;-74
2023/01/19 04:29:20;;;;;;;26.20;18.15;;;3.50;99.90;;;;;;5048384;28;20287;-75
2023/01/19 04:31:47;;;;;;;23.48;18.77;;;3.40;99.90;;;;;;5046545;28;20287;-76
2023/01/19 04:34:15;;;;;;;27.20;19.83;;;3.40;99.90;;;;;;5049429;28;20681;-74
2023/01/19 04:36:44;;;;;;;22.95;19.40;;;3.40;99.90;;;;;;5048779;28;20287;-74
2023/01/19 04:39:11;;;;;;;24.58;19.67;;;3.40;99.90;;;;;;5053375;28;20682;-75
2023/01/19 04:41:38;;;;;;;25.30;20.10;;;3.40;99.90;;;;;;5052965;28;20203;-75
2023/01/19 04:44:05;;;;;;;23.17;18.30;;;3.40;99.90;;;;;;5052871;28;20200;-75
2023/01/19 04:46:32;;;;;;;27.05;20.33;;;3.50;99.90;;;;;;5053637;28;20219;-74
2023/01/19 04:48:59;;;;;;;24.58;19.58;;;3.50;99.90;;;;;;5052995;28;20288;-74
2023/01/19 04:51:28;;;;;;;24.27;18.08;;;3.50;99.90;;;;;;5052401;28;20231;-74
2023/01/19 04:53:56;;;;;;;24.30;19.73;;;3.40;99.90;;;;;;5053176;28;20202;-75
2023/01/19 04:56:23;;;;;;;30.77;21.30;;;3.40;99.90;;;;;;5040196;28;20255;-74
2023/01/19 04:58:50;;;;;;;25.02;20.83;;;3.30;99.90;;;;;;5057313;28;20282;-74
2023/01/19 05:01:17;;;;;;;34.15;22.60;;;3.30;99.90;;;;;;5051590;28;20283;-74
2023/01/19 05:03:44;;;;;;;31.23;21.08;;;3.20;99.90;;;;;;5045098;28;20203;-75
2023/01/19 05:06:11;;;;;;;28.42;19.95;;;3.30;99.90;;;;;;5047987;28;20307;-74
2023/01/19 05:08:39;;;;;;;29.20;20.80;;;3.30;99.90;;;;;;5047558;28;20283;-75
2023/01/19 05:11:06;;;;;;;30.95;22.50;;;3.30;99.90;;;;;;5041545;28;20196;-74
2023/01/19 05:13:33;;;;;;;26.42;21.38;;;3.40;99.90;;;;;;5050307;28;20722;-75
2023/01/19 05:16:01;;;;;;;29.70;22.45;;;3.30;99.90;;;;;;5042761;28;20226;-74
2023/01/19 05:18:34;;;;;;;30.17;22.25;;;3.40;99.90;;;;;;5050946;28;20202;-77
2023/01/19 05:21:02;;;;;;;32.67;23.23;;;3.40;99.90;;;;;;5046532;28;20200;-76
2023/01/19 05:23:29;;;;;;;30.58;24.10;;;3.40;99.90;;;;;;5043194;28;20695;-77
2023/01/19 05:25:59;;;;;;;32.53;23.50;;;3.50;99.90;;;;;;5053315;28;20216;-74
2023/01/19 05:28:27;;;;;;;38.35;24.00;;;3.40;99.90;;;;;;5045797;28;20203;-76
2023/01/19 05:30:54;;;;;;;28.73;22.15;;;3.40;99.90;;;;;;5051404;28;20202;-74
2023/01/19 05:33:21;;;;;;;30.80;23.73;;;3.40;99.90;;;;;;5046461;28;20212;-74
2023/01/19 05:35:49;;;;;;;30.42;23.92;;;3.40;99.90;;;;;;5044378;28;20223;-76
2023/01/19 05:38:16;;;;;;;34.78;23.67;;;3.50;99.90;;;;;;5051482;28;20204;-75
2023/01/19 05:40:43;;;;;;;35.15;24.02;;;3.50;99.90;;;;;;5050605;28;20598;-75
2023/01/19 05:43:12;;;;;;;30.38;22.52;;;3.50;99.90;;;;;;5052316;28;20242;-75
2023/01/19 05:45:39;;;;;;;31.48;24.77;;;3.50;99.90;;;;;;5050969;28;20301;-76
2023/01/19 05:48:07;;;;;;;32.92;24.17;;;3.50;99.90;;;;;;5048822;28;20290;-74
2023/01/19 05:50:35;;;;;;;34.67;24.60;;;3.50;99.90;;;;;;5051400;28;20195;-74
2023/01/19 05:53:02;;;;;;;33.13;22.73;;;3.50;99.90;;;;;;5051583;28;20204;-75
2023/01/19 05:55:29;;;;;;;32.30;24.80;;;3.50;99.90;;;;;;5044802;28;20618;-76
2023/01/19 05:57:56;;;;;;;30.17;22.80;;;3.50;99.90;;;;;;5059489;28;20192;-73
2023/01/19 06:00:26;;;;;;;32.25;25.55;;;3.40;99.90;;;;;;5051104;28;20310;-75
2023/01/19 06:02:53;;;;;;;32.38;25.35;;;3.50;99.90;;;;;;5051007;28;20559;-73
2023/01/19 06:05:20;;;;;;;34.63;25.88;;;3.50;99.90;;;;;;5050061;28;20249;-74
2023/01/19 06:07:47;;;;;;;36.60;24.35;;;3.60;99.90;;;;;;5050211;28;20382;-76
2023/01/19 06:10:14;;;;;;;32.65;25.08;;;3.60;99.90;;;;;;5047158;28;20203;-75
2023/01/19 06:12:41;;;;;;;30.70;22.63;;;3.50;99.90;;;;;;5050647;28;20513;-75
2023/01/19 06:15:09;;;;;;;33.40;24.60;;;3.50;99.90;;;;;;5048335;28;20609;-74
2023/01/19 06:17:37;;;;;;;33.28;23.52;;;3.60;99.90;;;;;;5050511;28;20209;-74
2023/01/19 06:20:06;;;;;;;38.08;24.15;;;3.60;99.90;;;;;;5046601;28;20212;-78
2023/01/19 06:22:33;;;;;;;33.00;24.42;;;3.60;99.90;;;;;;5050283;28;20740;-75
2023/01/19 06:25:00;;;;;;;29.50;23.50;;;3.70;99.90;;;;;;5049599;28;20219;-75
2023/01/19 06:27:26;;;;;;;32.38;22.35;;;3.70;99.90;;;;;;5049950;28;20206;-75
2023/01/19 06:29:53;;;;;;;28.90;21.50;;;3.70;99.90;;;;;;5048757;28;20214;-76
2023/01/19 06:32:20;;;;;;;29.17;21.75;;;3.70;99.90;;;;;;5047202;28;20295;-75
2023/01/19 06:34:51;;;;;;;35.08;21.67;;;3.80;99.90;;;;;;5051439;28;20227;-73
2023/01/19 06:37:18;;;;;;;28.45;20.77;;;3.80;99.90;;;;;;5048639;28;20266;-74
2023/01/19 06:39:45;;;;;;;29.30;21.10;;;3.90;99.90;;;;;;5049239;28;20637;-74
2023/01/19 06:42:11;;;;;;;26.45;19.40;;;3.90;99.90;;;;;;5062498;28;20293;-75
2023/01/19 06:44:46;;;;;;;24.73;18.13;;;3.90;99.90;;;;;;5055350;28;20661;-77
2023/01/19 06:47:13;;;;;;;27.08;18.92;;;3.80;99.90;;;;;;5056122;28;20207;-75
2023/01/19 06:49:40;;;;;;;24.63;19.20;;;3.80;99.90;;;;;;5048145;28;20196;-77
2023/01/19 06:52:08;;;;;;;25.83;18.77;;;3.80;99.90;;;;;;5055098;28;20206;-76
2023/01/19 06:54:35;;;;;;;30.88;19.98;;;3.80;99.90;;;;;;5049088;28;20322;-74
2023/01/19 06:57:02;;;;;;;24.38;18.55;;;3.80;99.90;;;;;;5055108;28;20206;-74
2023/01/19 06:59:29;;;;;;;24.00;18.73;;;3.80;99.90;;;;;;5059952;28;20235;-74
2023/01/19 07:01:56;;;;;;;28.02;19.27;;;3.80;99.90;;;;;;5054273;28;20576;-75
2023/01/19 07:04:24;;;;;;;27.23;21.02;;;3.80;99.90;;;;;;5052948;28;20671;-73
2023/01/19 07:06:51;;;;;;;29.48;18.50;;;3.70;99.90;;;;;;5055446;28;20257;-75
2023/01/19 07:09:20;;;;;;;28.08;20.25;;;3.70;99.90;;;;;;5058052;28;20196;-74
2023/01/19 07:11:48;;;;;;;31.27;21.75;;;3.70;99.90;;;;;;5042336;28;20196;-74
2023/01/19 07:14:15;;;;;;;24.38;18.63;;;3.80;99.90;;;;;;5039982;28;20196;-75
2023/01/19 07:16:42;;;;;;;25.08;18.10;;;3.80;99.90;;;;;;5045099;28;20200;-75
2023/01/19 07:19:09;;;;;;;37.25;20.00;;;3.80;99.90;;;;;;5043228;28;20201;-73
2023/01/19 07:21:36;;;;;;;28.15;18.65;;;3.70;99.90;;;;;;5054050;28;20214;-74
2023/01/19 07:24:04;;;;;;;24.00;18.70;;;3.80;99.90;;;;;;5044546;28;20283;-73
2023/01/19 07:26:32;;;;;;;24.30;18.70;;;3.80;99.90;;;;;;5045188;28;20306;-75
2023/01/19 07:28:59;;;;;;;23.55;18.25;;;3.70;99.90;;;;;;5052553;28;20227;-73
2023/01/19 07:31:26;;;;;;;26.48;19.95;;;3.80;99.90;;;;;;5053040;28;20200;-75
2023/01/19 07:33:53;;;;;;;27.08;19.75;;;3.80;99.90;;;;;;5055156;28;20299;-75
2023/01/19 07:36:20;;;;;;;24.77;18.35;;;3.70;99.90;;;;;;5052766;28;20226;-75
2023/01/19 07:38:47;;;;;;;22.23;17.42;;;3.80;99.90;;;;;;5058105;28;20281;-74
2023/01/19 07:41:13;;;;;;;23.23;18.48;;;3.80;99.90;;;;;;5054094;28;20216;-73
2023/01/19 07:43:42;;;;;;;29.73;21.30;;;3.70;99.90;;;;;;5054560;28;20261;-74
2023/01/19 07:46:09;;;;;;;27.27;20.40;;;3.70;99.90;;;;;;5049710;28;20427;-76
2023/01/19 07:48:36;;;;;;;25.63;18.85;;;3.60;99.90;;;;;;5047296;28;20290;-74
2023/01/19 07:51:07;;;;;;;27.55;17.85;;;3.70;99.90;;;;;;5052431;28;20321;-75
2023/01/19 07:53:34;;;;;;;28.00;19.80;;;3.60;99.90;;;;;;5055046;28;20287;-75
2023/01/19 07:56:01;;;;;;;33.58;21.48;;;3.60;99.90;;;;;;5053766;28;20325;-74
2023/01/19 07:58:29;;;;;;;33.67;21.77;;;3.70;99.90;;;;;;5051889;28;20200;-75
2023/01/19 08:00:58;;;;;;;26.35;19.85;;;3.70;99.90;;;;;;5052107;28;20269;-75
2023/01/19 08:03:25;;;;;;;24.15;18.75;;;3.80;99.90;;;;;;5054784;28;20275;-73
2023/01/19 08:05:53;;;;;;;27.83;19.67;;;3.90;99.90;;;;;;5054444;28;20230;-74
2023/01/19 08:08:20;;;;;;;26.92;21.80;;;3.90;99.90;;;;;;5050943;28;20192;-73
2023/01/19 08:10:50;;;;;;;27.13;19.88;;;3.90;99.90;;;;;;5054136;28;20191;-74
2023/01/19 08:13:17;;;;;;;29.13;20.30;;;3.90;99.90;;;;;;5051017;28;20212;-73
2023/01/19 08:15:44;;;;;;;26.65;19.90;;;3.90;99.90;;;;;;5053734;28;20302;-75
2023/01/19 08:18:14;;;;;;;26.73;20.05;;;4.00;99.90;;;;;;5049041;28;20677;-74
2023/01/19 08:20:41;;;;;;;26.55;19.30;;;4.00;99.90;;;;;;5052811;28;20673;-75
2023/01/19 08:23:10;;;;;;;24.77;19.10;;;4.00;99.90;;;;;;5052715;28;20223;-74
2023/01/19 08:25:40;;;;;;;25.42;19.55;;;4.00;99.90;;;;;;5056336;28;20289;-75
2023/01/19 08:28:09;;;;;;;27.33;19.73;;;4.10;99.90;;;;;;5052813;28;20191;-74
2023/01/19 08:30:37;;;;;;;23.45;18.35;;;4.10;99.90;;;;;;5060634;28;20231;-74
2023/01/19 08:33:06;;;;;;;24.80;19.30;;;4.00;99.90;;;;;;5043256;28;20338;-74
2023/01/19 08:35:36;;;;;;;29.35;20.42;;;4.00;99.90;;;;;;5053725;28;20215;-75
2023/01/19 08:38:04;;;;;;;28.27;19.67;;;4.10;99.90;;;;;;5062271;28;20199;-74
2023/01/19 08:40:32;;;;;;;25.30;21.38;;;4.10;99.90;;;;;;5052524;28;20294;-77
2023/01/19 08:43:02;;;;;;;24.83;20.38;;;4.20;99.90;;;;;;5053773;28;20210;-75
2023/01/19 08:45:29;;;;;;;26.27;19.42;;;4.20;99.90;;;;;;5048385;28;20231;-74
2023/01/19 08:47:58;;;;;;;35.17;19.00;;;4.30;99.90;;;;;;5049419;28;20196;-74
2023/01/19 08:50:25;;;;;;;23.00;18.83;;;4.30;99.90;;;;;;5052547;28;20192;-76
2023/01/19 08:52:56;;;;;;;28.33;21.30;;;4.50;99.90;;;;;;5053241;28;20257;-75
2023/01/19 08:55:23;;;;;;;24.10;19.45;;;4.60;99.90;;;;;;5053453;28;20709;-74
2023/01/19 08:57:51;;;;;;;24.10;17.40;;;4.80;99.90;;;;;;5052342;28;20200;-74
2023/01/19 09:00:19;;;;;;;21.77;18.75;;;4.80;99.90;;;;;;5046554;28;20228;-74
2023/01/19 09:02:46;;;;;;;21.65;17.13;;;4.80;99.90;;;;;;5053322;28;20212;-74
2023/01/19 09:05:13;;;;;;;27.90;19.60;;;4.90;99.90;;;;;;5060916;28;20223;-76
2023/01/19 09:07:40;;;;;;;24.85;17.60;;;5.00;99.90;;;;;;5053544;28;20233;-75
2023/01/19 09:10:10;;;;;;;29.25;19.38;;;5.00;99.90;;;;;;5049973;28;20195;-76
2023/01/19 09:12:37;;;;;;;27.55;19.77;;;4.80;99.90;;;;;;5049677;28;20286;-74
2023/01/19 09:15:07;;;;;;;24.17;17.75;;;5.00;99.90;;;;;;5046945;28;20228;-74
2023/01/19 09:17:33;;;;;;;22.63;17.98;;;4.90;99.90;;;;;;5052255;28;20231;-75
2023/01/19 09:20:00;;;;;;;24.63;17.73;;;5.00;99.90;;;;;;5047069;28;20737;-74
2023/01/19 09:22:28;;;;;;;22.77;16.10;;;5.00;99.90;;;;;;5046008;28;20282;-75
2023/01/19 09:24:56;;;;;;;24.73;17.27;;;4.80;99.90;;;;;;5051348;28;20269;-75
2023/01/19 09:27:24;;;;;;;22.95;17.70;;;4.80;99.90;;;;;;5049161;28;20339;-74
2023/01/19 09:29:52;;;;;;;29.40;18.67;;;4.70;99.90;;;;;;5053497;28;20294;-73
2023/01/19 09:32:20;;;;;;;23.33;17.60;;;4.80;99.90;;;;;;5053839;28;20251;-75
2023/01/19 09:34:47;;;;;;;21.38;15.57;;;4.90;99.90;;;;;;5051512;28;20258;-76
2023/01/19 09:37:15;;;;;;;21.73;16.20;;;4.80;99.90;;;;;;5048665;28;20204;-76
2023/01/19 09:39:43;;;;;;;30.67;17.92;;;4.70;99.90;;;;;;5052021;28;20912;-75
2023/01/19 09:42:19;;;;;;;20.13;14.82;;;4.80;99.90;;;;;;5045725;28;20740;-75
2023/01/19 09:44:51;;;;;;;21.83;17.27;;;4.90;99.90;;;;;;5048786;28;20310;-75
2023/01/19 09:47:24;;;;;;;25.33;17.00;;;4.70;99.90;;;;;;5052910;28;20253;-76
2023/01/19 09:49:57;;;;;;;21.45;16.15;;;4.70;99.90;;;;;;5047547;28;20203;-74
2023/01/19 09:52:24;;;;;;;19.48;14.45;;;4.70;99.90;;;;;;5053366;28;20243;-74
2023/01/19 09:54:54;;;;;;;18.05;15.00;;;4.70;99.90;;;;;;5046426;28;20323;-75
2023/01/19 09:57:22;;;;;;;17.90;14.23;;;4.80;99.90;;;;;;5051177;28;20227;-74
2023/01/19 09:59:56;;;;;;;22.30;15.13;;;4.70;99.90;;;;;;5048946;28;20239;-75
2023/01/19 10:02:32;;;;;;;25.15;15.35;;;4.60;99.90;;;;;;5051311;28;20211;-76
2023/01/19 10:05:01;;;;;;;23.65;16.90;;;4.50;99.90;;;;;;5048103;28;20245;-75
2023/01/19 10:07:52;;;;;;;24.38;17.95;;;4.50;99.90;;;;;;5043994;28;20210;-76
2023/01/19 10:10:21;;;;;;;26.30;17.17;;;4.50;99.90;;;;;;5049670;28;20655;-75
2023/01/19 10:12:55;;;;;;;25.45;16.10;;;4.70;99.90;;;;;;5054058;28;20192;-75
2023/01/19 10:15:32;;;;;;;23.10;18.45;;;4.50;99.90;;;;;;5055100;28;20222;-74
2023/01/19 10:18:13;;;;;;;23.17;17.10;;;4.50;99.90;;;;;;5056228;28;20307;-75
2023/01/19 10:20:44;;;;;;;34.55;19.75;;;4.50;99.90;;;;;;5063649;28;20685;-75
2023/01/19 10:23:23;;;;;;;25.50;17.35;;;4.50;99.90;;;;;;5067275;28;20203;-75
2023/01/19 10:25:51;;;;;;;27.00;18.75;;;4.40;99.90;;;;;;5055956;28;20269;-74
2023/01/19 10:28:23;;;;;;;25.05;16.55;;;4.50;99.90;;;;;;5055150;28;20209;-75
2023/01/19 10:30:53;;;;;;;32.17;19.42;;;4.50;99.90;;;;;;5056316;28;20204;-75
2023/01/19 10:33:20;;;;;;;26.67;17.52;;;4.50;99.90;;;;;;5059267;28;20269;-74
2023/01/19 10:35:47;;;;;;;26.20;17.85;;;4.60;99.90;;;;;;5056712;28;20306;-74
2023/01/19 10:38:18;;;;;;;27.17;17.50;;;4.70;99.90;;;;;;5057598;28;20547;-75
2023/01/19 10:40:52;;;;;;;25.58;17.55;;;4.80;99.90;;;;;;5052364;28;20223;-75
2023/01/19 10:43:40;;;;;;;26.60;17.40;;;4.70;99.90;;;;;;5040241;28;20208;-74
2023/01/19 10:46:26;;;;;;;27.27;18.98;;;4.70;99.90;;;;;;5051990;28;20315;-74
2023/01/19 10:48:55;;;;;;;27.67;19.98;;;4.80;99.90;;;;;;5050332;28;20203;-76
2023/01/19 10:51:22;;;;;;;36.53;20.50;;;5.00;99.90;;;;;;5044869;28;20276;-75
2023/01/19 10:53:59;;;;;;;40.35;25.65;;;5.00;99.90;;;;;;5051482;28;20228;-74
2023/01/19 10:56:30;;;;;;;35.53;21.85;;;4.90;99.90;;;;;;5047465;28;20369;-76
2023/01/19 10:59:00;;;;;;;37.42;22.77;;;4.90;99.90;;;;;;5044334;28;20208;-75
2023/01/19 11:01:29;;;;;;;33.53;21.80;;;4.80;99.90;;;;;;5053853;28;20270;-76
2023/01/19 11:04:04;;;;;;;31.50;22.05;;;4.90;99.90;;;;;;5049543;28;20208;-76
2023/01/19 11:06:32;;;;;;;30.55;21.63;;;4.70;99.90;;;;;;5048540;28;20251;-74
2023/01/19 11:09:17;;;;;;;31.48;20.58;;;4.80;99.90;;;;;;5050742;28;20208;-74
2023/01/19 11:11:48;;;;;;;31.42;21.10;;;4.70;99.90;;;;;;5048443;28;20192;-76
2023/01/19 11:14:19;;;;;;;27.65;17.13;;;4.80;99.90;;;;;;5055382;28;20207;-74
2023/01/19 11:16:51;;;;;;;28.83;19.25;;;4.90;99.90;;;;;;5050262;28;20202;-76
2023/01/19 11:19:26;;;;;;;28.15;16.13;;;4.90;99.90;;;;;;5049193;28;20283;-73
2023/01/19 11:22:07;;;;;;;25.55;16.13;;;4.90;99.90;;;;;;5052897;28;20215;-75
2023/01/19 11:24:37;;;;;;;26.63;16.20;;;5.10;99.90;;;;;;5043810;28;20196;-75
2023/01/19 11:27:04;;;;;;;23.60;17.63;;;5.00;99.90;;;;;;5051173;28;20223;-74
2023/01/19 11:29:31;;;;;;;25.30;17.67;;;5.10;99.90;;;;;;5052786;28;20255;-74
2023/01/19 11:32:10;;;;;;;23.67;15.05;;;5.10;99.90;;;;;;5043958;28;20200;-73
2023/01/19 11:34:38;;;;;;;17.40;13.20;;;5.10;99.90;;;;;;5049990;28;20284;-73
2023/01/19 11:37:25;;;;;;;25.33;13.88;;;5.30;99.90;;;;;;5050250;28;20294;-77
2023/01/19 11:39:53;;;;;;;20.55;13.13;;;5.40;99.90;;;;;;5044100;28;20241;-77
2023/01/19 11:42:22;;;;;;;15.05;10.68;;;5.60;99.90;;;;;;5050260;28;20217;-75
2023/01/19 11:44:58;;;;;;;18.83;10.70;;;5.70;99.90;;;;;;5052083;28;20223;-73
2023/01/19 11:47:30;;;;;;;10.95;8.90;;;5.70;99.90;;;;;;5050655;28;20601;-74
2023/01/19 11:50:02;;;;;;;11.98;9.60;;;5.70;99.90;;;;;;5048233;28;20198;-74
2023/01/19 11:52:34;;;;;;;14.38;8.68;;;5.70;99.90;;;;;;5051584;28;20193;-74
2023/01/19 11:55:06;;;;;;;14.27;9.02;;;5.70;99.90;;;;;;5046770;28;20232;-76
2023/01/19 11:57:33;;;;;;;12.90;6.72;;;5.70;99.90;;;;;;5047890;28;20603;-74
2023/01/19 12:00:04;;;;;;;15.07;7.97;;;5.80;99.90;;;;;;5046464;28;20701;-74
2023/01/19 12:02:43;;;;;;;10.18;6.82;;;6.00;99.90;;;;;;5044012;28;20684;-73
2023/01/19 12:05:15;;;;;;;7.60;4.38;;;6.10;99.90;;;;;;5049152;28;20305;-74
2023/01/19 12:07:45;;;;;;;10.35;5.65;;;6.10;99.90;;;;;;5046872;28;20222;-75
2023/01/19 12:10:24;;;;;;;11.98;4.90;;;6.30;99.90;;;;;;5049572;28;20198;-74
2023/01/19 12:12:52;;;;;;;9.40;4.90;;;6.30;99.90;;;;;;5041906;28;20206;-75
2023/01/19 12:15:26;;;;;;;15.68;4.25;;;6.40;99.90;;;;;;5053035;28;20222;-75
2023/01/19 12:17:58;;;;;;;5.40;4.35;;;6.40;99.90;;;;;;5046191;28;20261;-75
2023/01/19 12:20:31;;;;;;;5.70;3.17;;;6.50;99.90;;;;;;5053194;28;20227;-76
2023/01/19 12:23:09;;;;;;;4.72;3.10;;;6.60;99.90;;;;;;5051062;28;20566;-77
2023/01/19 12:25:51;;;;;;;5.43;3.65;;;6.60;99.90;;;;;;5046206;28;20226;-79
2023/01/19 12:28:21;;;;;;;9.13;2.75;;;6.70;99.90;;;;;;5047968;28;20221;-75
2023/01/19 12:30:50;;;;;;;7.40;3.20;;;6.60;99.90;;;;;;5047265;28;20647;-76
2023/01/19 12:33:33;;;;;;;9.52;2.80;;;6.60;99.90;;;;;;5051200;28;20206;-76
2023/01/19 12:36:01;;;;;;;9.38;3.00;;;6.50;99.90;;;;;;5046478;28;20305;-74
2023/01/19 12:38:40;;;;;;;27.85;4.22;;;6.40;99.90;;;;;;5054054;28;20307;-75
2023/01/19 12:41:26;;;;;;;6.95;2.95;;;6.40;99.90;;;;;;5052058;28;20309;-75
2023/01/19 12:44:26;;;;;;;21.42;4.35;;;6.40;99.90;;;;;;5052390;28;20293;-76
2023/01/19 12:46:56;;;;;;;11.77;4.13;;;6.50;99.90;;;;;;5048263;28;20202;-74
2023/01/19 12:49:34;;;;;;;10.15;3.28;;;6.40;99.90;;;;;;5046044;28;20870;-77
2023/01/19 12:52:20;;;;;;;10.85;2.35;;;6.40;99.90;;;;;;5053123;28;20194;-76
2023/01/19 12:54:55;;;;;;;6.45;2.72;;;6.50;99.90;;;;;;5046764;28;20261;-74
2023/01/19 12:57:26;;;;;;;6.32;2.55;;;6.70;99.90;;;;;;5049365;28;20297;-76
2023/01/19 12:59:59;;;;;;;11.88;2.85;;;6.70;99.90;;;;;;5046556;28;20639;-77